Time;durP1;ratioP1;P1;durP2;ratioP2;P2;SDS_P1;SDS_P2;PMS_P1;PMS_P2;Temp;Humidity;BMP_temperature;BMP_pressure;BME280_temperature;BME280_humidity;BME280_pressure;Samples;Min_cycle;Max_cycle;Signal;HPM_P1;HPM_P2
2022/05/14 00:00:32;;;;;;;10.23;4.47;;;;;;;21.54;44.26;99463.81;5052686;28;20025;-47
2022/05/14 00:02:58;;;;;;;6.97;4.60;;;;;;;21.58;44.46;99468.38;5052169;28;20376;-49
2022/05/14 00:05:25;;;;;;;8.93;4.80;;;;;;;21.37;45.15;99467.69;5051759;28;20024;-48
2022/05/14 00:07:51;;;;;;;8.25;4.65;;;;;;;21.39;44.61;99464.69;5052022;28;20028;-47
2022/05/14 00:10:19;;;;;;;6.35;4.28;;;;;;;21.39;44.34;99453.88;5050548;28;20017;-49
2022/05/14 00:15:29;;;;;;;6.65;4.75;;;;;;;21.16;45.16;99448.06;5052128;28;20031;-50
2022/05/14 00:17:55;;;;;;;8.40;4.68;;;;;;;21.12;45.55;99451.63;5052162;28;20021;-47
2022/05/14 00:20:23;;;;;;;8.63;4.43;;;;;;;21.14;45.54;99455.66;5051849;28;20089;-50
2022/05/14 00:22:50;;;;;;;7.03;4.43;;;;;;;21.14;45.46;99452.16;5052089;28;20025;-48
2022/05/14 00:25:16;;;;;;;7.97;4.50;;;;;;;21.05;45.71;99454.63;5051823;28;20040;-47
2022/05/14 00:27:43;;;;;;;9.23;4.57;;;;;;;20.94;46.30;99463.91;5051785;28;20040;-47
2022/05/14 00:30:10;;;;;;;7.70;4.90;;;;;;;20.78;46.34;99428.81;5051522;28;20551;-49
2022/05/14 00:32:37;;;;;;;7.00;4.55;;;;;;;20.93;46.38;99452.28;5052000;28;20072;-46
2022/05/14 00:35:04;;;;;;;8.27;4.75;;;;;;;21.02;46.26;99447.91;5050228;28;20031;-48
2022/05/14 00:37:29;;;;;;;10.68;4.60;;;;;;;21.15;46.43;99446.47;5051514;28;20033;-47
2022/05/14 00:39:54;;;;;;;8.13;4.85;;;;;;;21.15;46.18;99434.81;5051249;28;20033;-47
2022/05/14 00:42:20;;;;;;;7.22;4.63;;;;;;;21.00;46.56;99441.13;5051651;28;20040;-47
2022/05/14 00:44:46;;;;;;;6.93;4.57;;;;;;;20.99;46.71;99439.53;5051330;28;20025;-47
2022/05/14 00:47:16;;;;;;;11.88;5.35;;;;;;;21.13;46.72;99451.34;5051187;28;20028;-47
2022/05/14 00:49:42;;;;;;;10.27;5.10;;;;;;;21.00;47.23;99451.94;5051598;28;20032;-48
2022/05/14 00:52:14;;;;;;;10.55;5.38;;;;;;;20.68;48.16;99445.09;5050927;28;20025;-47
2022/05/14 00:54:51;;;;;;;9.05;5.00;;;;;;;20.56;48.31;99450.81;5051215;28;20401;-46
2022/05/14 00:57:21;;;;;;;8.40;4.82;;;;;;;20.38;48.39;99452.22;5051282;28;20148;-46
2022/05/14 00:59:47;;;;;;;7.82;5.05;;;;;;;20.46;48.48;99448.94;5051114;28;20028;-47
2022/05/14 01:02:13;;;;;;;8.68;4.70;;;;;;;20.40;48.62;99451.94;5051069;28;20029;-46
2022/05/14 01:04:40;;;;;;;7.10;4.90;;;;;;;20.30;48.90;99452.78;5031641;28;20021;-46
2022/05/14 01:07:25;;;;;;;7.07;4.90;;;;;;;20.47;48.86;99452.47;5031354;28;20116;-49
2022/05/14 01:09:55;;;;;;;7.72;5.05;;;;;;;20.55;49.00;99451.88;5031054;28;20049;-47
2022/05/14 01:12:23;;;;;;;8.85;5.53;;;;;;;20.65;49.11;99451.84;5030636;28;20112;-48
2022/05/14 01:14:49;;;;;;;9.85;5.10;;;;;;;20.77;48.54;99454.25;5031300;28;20067;-48
2022/05/14 01:17:14;;;;;;;9.13;5.60;;;;;;;20.78;48.13;99446.94;5030744;28;20022;-47
2022/05/14 01:19:40;;;;;;;10.38;5.70;;;;;;;20.82;48.41;99456.91;5031186;28;20024;-47
2022/05/14 01:22:47;;;;;;;9.68;5.68;;;;;;;20.84;48.66;99443.13;5031014;28;20048;-46
2022/05/14 01:28:18;;;;;;;14.85;5.63;;;;;;;20.71;48.88;99458.06;5030738;28;20060;-47
2022/05/14 01:30:56;;;;;;;8.70;5.80;;;;;;;20.45;49.94;99451.94;5030769;28;20544;-49
2022/05/14 01:33:22;;;;;;;9.52;5.50;;;;;;;20.22;50.66;99448.75;5030542;28;20024;-47
2022/05/14 01:35:48;;;;;;;9.05;5.72;;;;;;;20.04;51.00;99452.03;5030427;28;20017;-47
2022/05/14 01:38:15;;;;;;;9.20;5.75;;;;;;;20.18;50.77;99450.38;5030367;28;20079;-47
2022/05/14 01:40:41;;;;;;;8.13;5.90;;;;;;;20.23;50.57;99450.34;5030435;28;20053;-47
2022/05/14 01:43:06;;;;;;;8.05;5.65;;;;;;;20.25;50.52;99450.88;5030689;28;20048;-47
2022/05/14 01:45:33;;;;;;;11.98;5.68;;;;;;;20.37;50.15;99441.66;5030067;28;20575;-50
2022/05/14 01:47:58;;;;;;;11.77;6.00;;;;;;;20.31;50.22;99435.47;5030409;28;20025;-47
2022/05/14 01:50:23;;;;;;;9.38;5.95;;;;;;;20.29;50.48;99437.63;5030610;28;20473;-47
2022/05/14 01:52:49;;;;;;;9.35;6.00;;;;;;;20.07;50.79;99438.78;5030264;28;20303;-47
2022/05/14 01:55:14;;;;;;;7.68;5.47;;;;;;;20.08;51.19;99439.59;5029970;28;20013;-46
2022/05/14 01:57:40;;;;;;;8.50;5.80;;;;;;;20.06;51.28;99441.75;5029754;28;20100;-47
2022/05/14 02:00:08;;;;;;;7.57;5.82;;;;;;;20.16;50.59;99446.31;5030201;28;20465;-47
2022/05/14 02:02:33;;;;;;;7.47;5.53;;;;;;;20.14;51.18;99446.59;5029490;28;20055;-47
2022/05/14 02:04:59;;;;;;;8.65;5.63;;;;;;;20.13;51.12;99446.88;5029272;28;20049;-49
2022/05/14 02:07:24;;;;;;;8.52;6.40;;;;;;;20.21;50.65;99449.81;5029101;28;20017;-48
2022/05/14 02:09:50;;;;;;;9.25;5.85;;;;;;;20.09;50.93;99444.72;5029350;28;20032;-48
2022/05/14 02:12:16;;;;;;;8.80;6.00;;;;;;;20.21;50.66;99452.53;5029171;28;20026;-49
2022/05/14 02:14:41;;;;;;;9.95;5.95;;;;;;;20.26;50.36;99451.72;5029389;28;20021;-48
2022/05/14 02:17:07;;;;;;;9.98;5.65;;;;;;;20.26;50.85;99451.72;5028866;28;20090;-47
2022/05/14 02:19:33;;;;;;;8.95;5.90;;;;;;;20.30;50.66;99442.78;5029503;28;20030;-50
2022/05/14 02:21:58;;;;;;;7.90;6.03;;;;;;;20.21;50.95;99449.81;5029971;28;20026;-50
2022/05/14 02:24:24;;;;;;;12.02;6.28;;;;;;;20.19;50.76;99446.59;5029759;28;20029;-50
2022/05/14 02:26:49;;;;;;;8.50;6.32;;;;;;;20.06;51.00;99456.06;5029597;28;20041;-47
2022/05/14 02:29:15;;;;;;;10.07;6.18;;;;;;;19.60;52.28;99444.50;5029766;28;20050;-47
2022/05/14 02:31:40;;;;;;;10.98;5.97;;;;;;;19.56;52.30;99446.91;5029565;28;20033;-47
2022/05/14 02:34:06;;;;;;;8.57;6.20;;;;;;;19.59;52.37;99445.56;5029599;28;20021;-48
2022/05/14 02:36:31;;;;;;;8.82;6.22;;;;;;;19.45;52.75;99447.97;5029251;28;20025;-47
2022/05/14 02:38:56;;;;;;;9.15;5.78;;;;;;;19.49;52.93;99451.75;5027556;28;20112;-47
2022/05/14 02:41:22;;;;;;;12.05;6.57;;;;;;;19.59;52.89;99446.38;5028881;28;20021;-46
2022/05/14 02:43:47;;;;;;;10.85;6.40;;;;;;;19.39;52.82;99432.88;5029115;28;20029;-47
2022/05/14 02:46:13;;;;;;;10.00;6.60;;;;;;;19.62;52.28;99442.31;5029117;28;20029;-49
2022/05/14 02:48:39;;;;;;;9.45;6.75;;;;;;;19.73;51.92;99438.56;5029336;28;20443;-50
2022/05/14 02:51:05;;;;;;;10.55;6.90;;;;;;;19.50;52.91;99440.69;5029174;28;20028;-50
2022/05/14 02:53:30;;;;;;;9.90;6.60;;;;;;;19.33;53.37;99448.25;5029418;28;20025;-50
2022/05/14 02:55:56;;;;;;;9.38;6.70;;;;;;;19.24;53.41;99447.16;5029635;28;20029;-47
2022/05/14 03:01:07;;;;;;;10.02;6.45;;;;;;;19.37;53.18;99445.84;5029767;28;20417;-47
2022/05/14 03:03:32;;;;;;;10.15;6.57;;;;;;;19.38;53.50;99450.97;5029148;28;20123;-47
2022/05/14 03:05:58;;;;;;;11.30;6.82;;;;;;;19.26;53.76;99439.59;5029108;28;20493;-48
2022/05/14 03:08:24;;;;;;;11.02;7.10;;;;;;;19.33;53.54;99434.75;5029795;28;20112;-45
2022/05/14 03:10:50;;;;;;;12.20;7.43;;;;;;;19.49;53.03;99449.06;5032890;28;20466;-45
2022/05/14 03:13:15;;;;;;;12.18;7.57;;;;;;;19.47;53.24;99446.63;5033392;28;20042;-46
2022/05/14 03:15:41;;;;;;;9.43;7.03;;;;;;;19.37;53.66;99448.53;5033146;28;20112;-46
2022/05/14 03:18:06;;;;;;;11.63;7.28;;;;;;;19.29;53.77;99450.69;5033109;28;20156;-45
2022/05/14 03:20:32;;;;;;;14.60;7.13;;;;;;;19.02;54.44;99441.97;5032509;28;20030;-47
2022/05/14 03:22:58;;;;;;;10.02;7.20;;;;;;;18.92;55.09;99440.06;5032964;28;20041;-47
2022/05/14 03:25:24;;;;;;;12.07;7.30;;;;;;;18.95;54.88;99434.97;5033048;28;20222;-49
2022/05/14 03:27:50;;;;;;;9.88;7.45;;;;;;;19.05;54.85;99439.56;5033050;28;20115;-47
2022/05/14 03:30:16;;;;;;;12.57;7.28;;;;;;;19.09;54.71;99445.25;5032719;28;20085;-46
2022/05/14 03:32:41;;;;;;;10.30;7.00;;;;;;;19.10;54.61;99447.69;5033123;28;20474;-46
2022/05/14 03:35:08;;;;;;;13.23;7.15;;;;;;;19.22;54.42;99447.41;5032953;28;20029;-47
2022/05/14 03:37:35;;;;;;;13.45;7.63;;;;;;;19.22;54.48;99450.13;5033404;28;20048;-48
2022/05/14 03:40:01;;;;;;;10.82;6.88;;;;;;;19.31;54.35;99453.09;5032934;28;20037;-47
2022/05/14 03:42:26;;;;;;;13.55;6.90;;;;;;;19.52;53.49;99448.53;5032635;28;20071;-46
2022/05/14 03:44:52;;;;;;;12.00;7.10;;;;;;;19.73;53.08;99449.38;5032527;28;20083;-47
2022/05/14 03:47:17;;;;;;;12.68;7.35;;;;;;;20.01;52.24;99441.75;5032575;28;20099;-46
2022/05/14 03:49:45;;;;;;;11.77;6.80;;;;;;;20.30;51.65;99448.19;5032963;28;20490;-46
2022/05/14 03:52:11;;;;;;;13.57;7.13;;;;;;;20.55;51.10;99457.28;5032195;28;20096;-46
2022/05/14 03:54:38;;;;;;;16.65;6.88;;;;;;;20.80;50.08;99452.88;5032426;28;20469;-46
2022/05/14 03:57:07;;;;;;;10.20;6.70;;;;;;;21.04;49.97;99463.84;5032658;28;20037;-47
2022/05/14 03:59:33;;;;;;;12.35;6.38;;;;;;;21.32;49.16;99467.72;5032580;28;20033;-47
2022/05/14 04:01:59;;;;;;;14.35;6.50;;;;;;;21.50;48.82;99466.28;5032235;28;20038;-47
2022/05/14 04:04:25;;;;;;;9.88;6.43;;;;;;;21.88;47.55;99471.91;5031958;28;20033;-47
2022/05/14 04:06:51;;;;;;;9.70;6.40;;;;;;;22.05;46.94;99474.19;5032327;28;20025;-47
2022/05/14 04:09:16;;;;;;;11.70;7.00;;;;;;;22.22;46.74;99476.47;5032247;28;20026;-47
2022/05/14 04:11:41;;;;;;;10.02;7.25;;;;;;;22.39;45.37;99473.31;5032432;28;20056;-47
2022/05/14 04:14:07;;;;;;;10.32;6.90;;;;;;;22.58;45.54;99484.22;5031884;28;20075;-49
2022/05/14 04:16:33;;;;;;;11.57;6.82;;;;;;;22.78;44.89;99483.16;5032322;28;20405;-46
2022/05/14 04:18:58;;;;;;;11.77;6.50;;;;;;;22.98;44.00;99495.66;5031958;28;20029;-47
2022/05/14 04:21:24;;;;;;;9.65;5.88;;;;;;;23.35;44.09;99494.09;5031351;28;20017;-47
2022/05/14 04:23:49;;;;;;;14.95;11.15;;;;;;;23.76;42.56;99491.53;5031963;28;20529;-48
2022/05/14 04:26:15;;;;;;;17.50;10.18;;;;;;;24.31;41.22;99490.88;5031912;28;20067;-48
2022/05/14 04:28:40;;;;;;;10.38;8.02;;;;;;;24.56;41.51;99486.88;5032059;28;20057;-47
2022/05/14 04:31:06;;;;;;;8.98;5.93;;;;;;;25.07;40.26;99506.75;5031910;28;20021;-48
2022/05/14 04:33:31;;;;;;;11.15;6.03;;;;;;;25.33;40.16;99498.88;5032092;28;20021;-46
2022/05/14 04:35:56;;;;;;;7.43;5.10;;;;;;;25.68;38.84;99496.44;5031218;28;20029;-46
2022/05/14 04:38:22;;;;;;;12.15;5.20;;;;;;;26.02;37.92;99499.69;5031726;28;20036;-48
2022/05/14 04:40:47;;;;;;;9.23;4.50;;;;;;;26.36;36.70;99499.06;5031570;28;20021;-47
2022/05/14 04:43:14;;;;;;;8.18;4.55;;;;;;;26.65;36.08;99489.56;5031623;28;20060;-47
2022/05/14 04:45:40;;;;;;;6.57;4.68;;;;;;;26.99;35.69;99496.22;5030918;28;20027;-47
2022/05/14 04:48:07;;;;;;;8.48;4.45;;;;;;;27.20;34.89;99504.59;5031670;28;20091;-47
2022/05/14 04:50:32;;;;;;;7.45;4.55;;;;;;;27.58;33.95;99514.91;5031440;28;20017;-47
2022/05/14 04:52:59;;;;;;;6.35;4.80;;;;;;;27.77;33.56;99511.81;5031523;28;20026;-45
2022/05/14 04:55:25;;;;;;;8.75;5.40;;;;;;;28.14;33.07;99512.25;5031140;28;20025;-47
2022/05/14 04:57:50;;;;;;;5.93;4.50;;;;;;;28.55;32.44;99505.38;5031128;28;20021;-48
2022/05/14 05:00:16;;;;;;;6.43;4.53;;;;;;;28.78;31.93;99508.63;5031075;28;20448;-46
2022/05/14 05:05:29;;;;;;;7.00;4.20;;;;;;;28.99;31.20;99497.69;5051056;28;20039;-51
2022/05/14 05:07:54;;;;;;;7.03;4.28;;;;;;;29.15;31.29;99500.66;5050617;28;20087;-47
2022/05/14 05:10:20;;;;;;;9.45;4.40;;;;;;;29.27;30.75;99505.44;5051267;28;20103;-48
2022/05/14 05:12:46;;;;;;;4.88;4.00;;;;;;;29.65;30.64;99509.94;5051195;28;20029;-50
2022/05/14 05:15:11;;;;;;;8.35;4.32;;;;;;;30.10;29.75;99514.66;5051011;28;20029;-47
2022/05/14 05:17:37;;;;;;;8.63;4.47;;;;;;;30.25;29.61;99518.69;5050931;28;20449;-47
2022/05/14 05:20:05;;;;;;;5.68;4.45;;;;;;;30.47;29.23;99512.00;5051035;28;20475;-50
2022/05/14 05:22:30;;;;;;;7.53;4.28;;;;;;;30.87;28.08;99508.56;5051029;28;20052;-50
2022/05/14 05:24:56;;;;;;;9.50;4.30;;;;;;;30.35;28.48;99519.09;5050883;28;20056;-50
2022/05/14 05:27:22;;;;;;;6.38;4.35;;;;;;;30.69;28.52;99519.78;5050302;28;20131;-49
2022/05/14 05:29:48;;;;;;;7.70;4.30;;;;;;;30.91;28.07;99510.28;5050148;28;20048;-51
2022/05/14 05:32:14;;;;;;;9.20;7.38;;;;;;;31.19;28.17;99512.31;5050358;28;20029;-48
2022/05/14 05:34:40;;;;;;;9.15;5.75;;;;;;;31.48;28.07;99518.66;5048674;28;20032;-50
2022/05/14 05:37:05;;;;;;;5.38;4.10;;;;;;;31.86;27.14;99514.59;5041593;28;20408;-50
2022/05/14 05:39:31;;;;;;;8.77;4.05;;;;;;;32.23;26.96;99517.13;5041107;28;20025;-47
2022/05/14 05:41:58;;;;;;;5.78;4.30;;;;;;;32.63;25.63;99513.41;5039428;28;20055;-48
2022/05/14 05:44:25;;;;;;;6.68;4.00;;;;;;;32.69;25.77;99518.31;5047836;28;20436;-49
2022/05/14 05:46:51;;;;;;;4.85;3.90;;;;;;;32.89;25.67;99515.59;5047803;28;20152;-48
2022/05/14 05:49:16;;;;;;;8.90;4.05;;;;;;;33.17;25.19;99509.13;5039332;28;20034;-51
2022/05/14 05:51:42;;;;;;;9.55;4.82;;;;;;;33.53;25.45;99507.09;5040982;28;20016;-48
2022/05/14 05:56:57;;;;;;;6.63;4.25;;;;;;;33.34;25.59;99525.25;5046270;28;20570;-52
2022/05/14 05:59:25;;;;;;;7.00;3.83;;;;;;;33.78;24.36;99529.69;5047605;28;20045;-48
2022/05/14 06:01:52;;;;;;;8.30;3.85;;;;;;;34.06;24.47;99524.69;5039476;28;20061;-53
2022/05/14 06:04:19;;;;;;;9.68;5.70;;;;;;;34.50;23.55;99522.66;5040302;28;20033;-52
2022/05/14 06:06:44;;;;;;;7.75;4.38;;;;;;;34.93;23.28;99524.13;5042602;28;20035;-50
2022/05/14 06:09:12;;;;;;;6.80;4.05;;;;;;;35.01;23.28;99513.97;5039120;28;20119;-48
2022/05/14 06:11:38;;;;;;;10.63;5.57;;;;;;;34.14;23.69;99513.75;5039246;28;20071;-49
2022/05/14 06:14:04;;;;;;;10.43;5.70;;;;;;;34.56;24.04;99519.22;5040370;28;20025;-49
2022/05/14 06:16:29;;;;;;;8.38;4.55;;;;;;;34.33;24.21;99516.50;5040411;28;20056;-50
2022/05/14 06:18:55;;;;;;;4.72;4.10;;;;;;;34.83;23.25;99524.78;5036387;28;20144;-51
2022/05/14 06:21:20;;;;;;;10.70;8.77;;;;;;;34.70;23.87;99517.88;5038747;28;20075;-52
2022/05/14 06:23:46;;;;;;;7.50;5.82;;;;;;;34.28;24.03;99527.84;5050101;28;20465;-51
2022/05/14 06:26:11;;;;;;;8.65;5.85;;;;;;;33.91;24.13;99530.31;5050377;28;20033;-50
2022/05/14 06:28:37;;;;;;;8.20;4.43;;;;;;;34.44;23.25;99525.75;5049793;28;20051;-48
2022/05/14 06:31:02;;;;;;;7.10;5.05;;;;;;;34.98;24.03;99528.56;5050245;28;20025;-50
2022/05/14 06:33:28;;;;;;;9.43;5.30;;;;;;;35.65;23.45;99527.06;5050351;28;20064;-50
2022/05/14 06:35:54;;;;;;;5.78;4.10;;;;;;;36.14;22.18;99520.47;5050329;28;20428;-50
2022/05/14 06:38:20;;;;;;;8.88;4.07;;;;;;;36.57;21.69;99529.91;5050380;28;20108;-50
2022/05/14 06:40:46;;;;;;;7.47;4.00;;;;;;;36.90;21.30;99524.63;5050643;28;20112;-52
2022/05/14 06:43:16;;;;;;;8.02;4.00;;;;;;;37.16;21.30;99531.91;5043806;28;20400;-48
2022/05/14 06:45:44;;;;;;;6.10;4.00;;;;;;;37.39;20.91;99530.84;5030528;28;20400;-51
2022/05/14 06:48:10;;;;;;;8.43;4.20;;;;;;;36.74;21.25;99527.69;5030416;28;20022;-52
2022/05/14 06:50:47;;;;;;;30.40;26.08;;;;;;;35.93;21.94;99530.16;5030177;28;20030;-52
2022/05/14 06:53:15;;;;;;;18.92;13.32;;;;;;;35.29;23.02;99534.91;5029423;28;20026;-52
2022/05/14 06:55:43;;;;;;;6.95;4.78;;;;;;;35.38;23.06;99536.22;5035963;28;20017;-52
2022/05/14 06:58:13;;;;;;;7.03;5.00;;;;;;;35.91;22.59;99526.97;5049605;28;20029;-47
2022/05/14 07:00:39;;;;;;;7.88;4.38;;;;;;;36.32;22.40;99534.47;5050091;28;20025;-50
2022/05/14 07:08:33;;;;;;;7.50;4.40;;;;;;;36.97;22.04;99538.53;5049619;28;20396;-51
2022/05/14 07:10:58;;;;;;;5.25;3.90;;;;;;;37.19;21.59;99538.69;5050036;28;20509;-51
2022/05/14 07:13:24;;;;;;;7.57;4.07;;;;;;;37.76;20.81;99541.69;5049634;28;20405;-50
2022/05/14 07:15:49;;;;;;;15.45;4.32;;;;;;;38.25;20.80;99536.63;5049029;28;20485;-51
2022/05/14 07:18:15;;;;;;;8.90;4.07;;;;;;;38.30;20.32;99542.56;5049272;28;20048;-49
2022/05/14 07:20:40;;;;;;;8.10;4.47;;;;;;;37.35;22.25;99545.47;5048516;28;20028;-51
2022/05/14 07:23:06;;;;;;;7.70;4.18;;;;;;;37.55;21.32;99532.09;5049070;28;20061;-52
2022/05/14 07:25:32;;;;;;;6.90;4.00;;;;;;;37.35;21.18;99539.94;5048667;28;20036;-52
2022/05/14 07:27:58;;;;;;;10.70;4.15;;;;;;;36.81;22.04;99535.28;5049322;28;20091;-50
2022/05/14 07:30:24;;;;;;;6.10;4.30;;;;;;;36.06;22.93;99538.16;5049198;28;20114;-50
2022/05/14 07:32:50;;;;;;;12.75;8.35;;;;;;;36.36;22.80;99529.75;5049087;28;20029;-51
2022/05/14 07:35:16;;;;;;;8.70;4.15;;;;;;;37.16;21.98;99538.25;5049069;28;20111;-52
2022/05/14 07:37:44;;;;;;;6.07;4.30;;;;;;;36.07;22.67;99535.03;5049094;28;20025;-49
2022/05/14 07:40:15;;;;;;;9.00;4.10;;;;;;;36.89;22.16;99551.56;5049075;28;20021;-50
2022/05/14 07:42:53;;;;;;;4.80;4.30;;;;;;;37.75;21.51;99545.66;5048870;28;20021;-50
2022/05/14 07:45:23;;;;;;;10.32;5.00;;;;;;;38.28;20.92;99546.94;5048503;28;20100;-51
2022/05/14 07:47:50;;;;;;;12.95;4.32;;;;;;;38.48;20.81;99539.00;5048864;28;20107;-49
2022/05/14 07:50:17;;;;;;;10.17;5.50;;;;;;;38.50;21.05;99536.63;5049213;28;20569;-51
2022/05/14 07:52:43;;;;;;;5.85;5.00;;;;;;;38.05;21.50;99541.75;5049136;28;20829;-51
2022/05/14 07:55:09;;;;;;;7.43;6.18;;;;;;;37.65;22.71;99552.75;5048583;28;20032;-52
2022/05/14 07:57:34;;;;;;;8.68;4.60;;;;;;;37.78;21.96;99550.44;5052548;28;20032;-48
2022/05/14 08:00:00;;;;;;;10.68;4.38;;;;;;;36.80;22.87;99553.88;5052545;28;20017;-51
2022/05/14 08:02:31;;;;;;;11.43;4.68;;;;;;;36.92;21.82;99548.00;5052388;28;20028;-48
2022/05/14 08:05:04;;;;;;;6.00;4.55;;;;;;;37.16;22.13;99554.91;5052009;28;20438;-50
2022/05/14 08:07:31;;;;;;;5.78;3.83;;;;;;;36.17;21.72;99556.50;5052127;28;20029;-50
2022/05/14 08:09:58;;;;;;;9.13;4.38;;;;;;;36.53;21.65;99569.88;5051943;28;20511;-51
2022/05/14 08:12:24;;;;;;;8.27;4.50;;;;;;;36.46;21.96;99556.78;5052227;28;20065;-50
2022/05/14 08:14:50;;;;;;;5.70;4.10;;;;;;;35.65;22.30;99565.78;5052059;28;20025;-51
2022/05/14 08:17:15;;;;;;;6.13;4.10;;;;;;;35.03;23.07;99570.50;5052227;28;20021;-51
2022/05/14 08:19:41;;;;;;;12.60;4.30;;;;;;;33.88;24.32;99568.50;5051748;28;20031;-49
2022/05/14 08:24:51;;;;;;;9.82;4.55;;;;;;;33.70;24.77;99570.13;5052051;28;20503;-49
2022/05/14 08:27:17;;;;;;;7.07;4.10;;;;;;;33.50;24.88;99569.31;5051566;28;20021;-50
2022/05/14 08:29:45;;;;;;;8.20;4.60;;;;;;;32.98;25.83;99573.25;5051531;28;20465;-49
2022/05/14 08:32:11;;;;;;;8.20;4.55;;;;;;;32.82;26.60;99582.31;5051839;28;20013;-48
2022/05/14 08:34:37;;;;;;;8.05;4.38;;;;;;;31.99;27.44;99586.81;5051556;28;20028;-49
2022/05/14 08:37:03;;;;;;;7.18;4.60;;;;;;;32.08;27.44;99587.50;5051894;28;20252;-47
2022/05/14 08:39:29;;;;;;;8.13;4.32;;;;;;;32.15;27.68;99594.00;5051333;28;20017;-48
2022/05/14 08:41:57;;;;;;;5.45;4.25;;;;;;;32.02;27.71;99597.97;5051354;28;20070;-48
2022/05/14 08:44:32;;;;;;;5.67;4.40;;;;;;;31.82;28.03;99599.75;5051614;28;20041;-48
2022/05/14 08:47:03;;;;;;;9.43;4.30;;;;;;;31.59;28.46;99602.25;5051828;28;20258;-51
2022/05/14 08:49:33;;;;;;;8.18;4.65;;;;;;;31.38;28.90;99599.63;5051462;28;20052;-51
2022/05/14 08:52:00;;;;;;;10.68;4.53;;;;;;;31.13;28.86;99598.84;5051439;28;20036;-48
2022/05/14 08:54:26;;;;;;;9.38;4.90;;;;;;;31.10;29.23;99614.09;5036971;28;20052;-49
2022/05/14 08:57:00;;;;;;;8.18;4.60;;;;;;;31.43;29.05;99617.81;5031673;28;20406;-51
2022/05/14 09:00:02;;;;;;;10.50;5.05;;;;;;;30.25;30.54;99637.47;5031689;28;20025;-47
2022/05/14 09:02:30;;;;;;;10.15;5.40;;;;;;;29.74;31.85;99631.31;5031981;28;20500;-48
2022/05/14 09:04:58;;;;;;;11.90;5.20;;;;;;;29.89;31.62;99638.13;5051073;28;20037;-50
2022/05/14 09:07:24;;;;;;;;;;;;;;;30.00;31.75;99644.81;5051051;28;20422;-48
2022/05/14 09:09:51;;;;;;;10.18;5.00;;;;;;;29.60;32.10;99658.97;5051218;28;19995;-51
2022/05/14 09:12:20;;;;;;;8.77;4.63;;;;;;;29.34;32.93;99656.38;5050672;28;20425;-48
2022/05/14 09:14:46;;;;;;;9.70;4.43;;;;;;;28.97;33.06;99669.75;5050676;28;20146;-48
2022/05/14 09:17:21;;;;;;;9.55;4.45;;;;;;;29.18;32.72;99654.22;5051124;28;20104;-48
2022/05/14 09:19:51;;;;;;;23.75;7.15;;;;;;;29.65;31.61;99658.78;5048988;28;20039;-48
2022/05/14 09:22:22;;;;;;;10.55;3.95;;;;;;;28.83;31.95;99670.00;5049981;28;20082;-48
2022/05/14 09:25:12;;;;;;;7.70;3.95;;;;;;;28.60;31.35;99658.47;5050145;28;20049;-51
2022/05/14 09:28:00;;;;;;;11.25;4.35;;;;;;;28.32;31.91;99669.75;5050726;28;20063;-51
2022/05/14 09:30:35;;;;;;;10.13;3.88;;;;;;;28.37;31.90;99658.66;5050279;28;20547;-49
2022/05/14 09:33:02;;;;;;;5.72;3.83;;;;;;;28.20;32.54;99666.88;5050365;28;20086;-51
2022/05/14 09:35:32;;;;;;;10.80;3.67;;;;;;;27.80;33.37;99661.53;5050078;28;20025;-48
2022/05/14 09:38:28;;;;;;;7.93;4.15;;;;;;;27.73;33.93;99658.47;5050301;28;20437;-50
2022/05/14 09:41:06;;;;;;;8.13;4.30;;;;;;;28.01;33.88;99659.81;5041497;28;20135;-49
2022/05/14 09:43:35;;;;;;;22.33;15.98;;;;;;;28.04;35.11;99663.81;5050334;28;20027;-50
2022/05/14 09:46:03;;;;;;;8.98;4.90;;;;;;;27.55;36.14;99674.03;5050354;28;20031;-47
2022/05/14 09:48:47;;;;;;;22.20;13.65;;;;;;;27.39;37.30;99684.59;5050479;28;20105;-47
2022/05/14 09:51:25;;;;;;;14.15;5.82;;;;;;;27.46;37.52;99682.22;5050131;28;20079;-49
2022/05/14 09:53:52;;;;;;;10.88;4.72;;;;;;;28.07;36.45;99683.13;5050076;28;20028;-47
2022/05/14 09:56:47;;;;;;;6.70;4.55;;;;;;;28.59;36.52;99686.94;5049738;28;20060;-47
2022/05/14 09:59:27;;;;;;;5.63;4.07;;;;;;;28.70;36.09;99687.41;5050421;28;20112;-47
2022/05/14 10:02:09;;;;;;;6.80;4.07;;;;;;;28.41;35.56;99677.94;5050520;28;20076;-50
2022/05/14 10:04:56;;;;;;;8.10;4.55;;;;;;;28.77;36.24;99683.06;5050006;28;20033;-46
2022/05/14 10:07:44;;;;;;;8.20;4.30;;;;;;;28.91;36.25;99676.56;5048334;28;20167;-48
2022/05/14 10:10:22;;;;;;;9.88;5.00;;;;;;;28.99;36.20;99671.03;5049971;28;20039;-47
2022/05/14 10:13:02;;;;;;;8.35;5.20;;;;;;;28.98;35.89;99665.91;5049383;28;20550;-49
2022/05/14 10:15:45;;;;;;;8.82;4.15;;;;;;;28.40;36.57;99636.09;5049677;28;20066;-47
2022/05/14 10:18:29;;;;;;;6.78;4.63;;;;;;;27.41;37.62;99646.84;5048747;28;20469;-48
2022/05/14 10:21:05;;;;;;;6.82;4.43;;;;;;;27.34;38.17;99630.94;5049353;28;20037;-47
2022/05/14 10:26:49;;;;;;;10.88;4.72;;;;;;;26.69;39.90;99626.97;5049366;28;20036;-48
2022/05/14 10:29:20;;;;;;;11.45;4.43;;;;;;;26.59;39.41;99640.88;5049195;28;20067;-50
2022/05/14 10:32:04;;;;;;;9.55;4.30;;;;;;;27.24;38.37;99650.31;5049524;28;20108;-48
2022/05/14 10:34:42;;;;;;;7.90;4.57;;;;;;;27.03;39.29;99659.06;5049133;28;20500;-51
2022/05/14 10:37:31;;;;;;;9.77;4.18;;;;;;;27.52;39.33;99678.22;5049131;28;20456;-51
2022/05/14 10:40:20;;;;;;;8.10;4.10;;;;;;;28.00;38.77;99691.00;5047024;28;20044;-51
2022/05/14 10:42:59;;;;;;;11.27;4.55;;;;;;;28.18;38.69;99694.53;5031136;28;20044;-50
2022/05/14 10:45:39;;;;;;;7.20;4.38;;;;;;;27.88;38.92;99683.44;5036806;28;20033;-48
2022/05/14 10:48:04;;;;;;;8.25;4.40;;;;;;;27.63;39.87;99682.25;5038491;28;20033;-47
2022/05/14 10:50:30;;;;;;;9.77;4.22;;;;;;;27.38;40.41;99670.16;5037967;28;20021;-48
2022/05/14 10:52:57;;;;;;;7.38;4.43;;;;;;;27.49;40.61;99676.09;5038864;28;20020;-49
2022/05/14 10:55:29;;;;;;;6.75;4.32;;;;;;;27.32;41.27;99670.59;5037296;28;20166;-48
2022/05/14 10:57:59;;;;;;;7.05;4.78;;;;;;;27.46;41.20;99666.63;5036295;28;20067;-50
2022/05/14 11:00:28;;;;;;;8.68;4.38;;;;;;;27.95;40.45;99666.56;5037648;28;20139;-56
2022/05/14 11:03:01;;;;;;;11.20;5.18;;;;;;;28.23;40.51;99666.22;5039625;28;20036;-51
2022/05/14 11:05:50;;;;;;;10.32;3.83;;;;;;;28.04;40.04;99664.59;5049515;28;20029;-51
2022/05/14 11:08:35;;;;;;;4.57;3.30;;;;;;;27.73;39.95;99663.94;5049453;28;20057;-48
2022/05/14 11:11:05;;;;;;;8.43;3.13;;;;;;;27.93;39.15;99668.00;5049258;28;20055;-51
2022/05/14 11:13:31;;;;;;;7.82;2.70;;;;;;;27.91;39.81;99660.09;5048960;28;20021;-52
2022/05/14 11:16:12;;;;;;;7.82;3.20;;;;;;;28.39;39.36;99669.28;5049277;28;20108;-49
2022/05/14 11:18:53;;;;;;;4.20;3.13;;;;;;;28.78;39.02;99657.25;5049618;28;20126;-50
2022/05/14 11:21:31;;;;;;;12.18;3.20;;;;;;;28.95;38.33;99659.13;5049050;28;20025;-53
2022/05/14 11:24:00;;;;;;;8.73;3.72;;;;;;;28.42;39.51;99646.72;5048365;28;20476;-49
2022/05/14 11:26:26;;;;;;;7.38;3.90;;;;;;;28.43;39.36;99640.91;5048932;28;20492;-51
2022/05/14 11:28:57;;;;;;;10.27;4.20;;;;;;;28.00;40.33;99646.44;5048920;28;20056;-50
2022/05/14 11:31:27;;;;;;;15.18;4.32;;;;;;;27.84;40.77;99644.16;5052056;28;20032;-51
2022/05/14 11:33:56;;;;;;;10.18;4.60;;;;;;;26.89;42.40;99628.34;5052870;28;20566;-50
2022/05/14 11:36:24;;;;;;;14.98;4.65;;;;;;;27.06;42.54;99630.34;5051857;28;20033;-52
2022/05/14 11:39:21;;;;;;;9.05;4.97;;;;;;;27.57;41.74;99630.78;5052770;28;20020;-51
2022/05/14 11:41:48;;;;;;;6.65;4.13;;;;;;;27.72;41.55;99633.06;5052605;28;20429;-50
2022/05/14 11:44:33;;;;;;;8.07;4.30;;;;;;;28.56;40.06;99630.94;5052662;28;20028;-49
2022/05/14 11:46:59;;;;;;;7.90;4.35;;;;;;;28.57;39.40;99632.53;5051183;28;20025;-51
2022/05/14 11:49:25;;;;;;;10.98;4.47;;;;;;;27.69;40.78;99622.78;5053486;28;20047;-48
2022/05/14 11:51:53;;;;;;;9.48;4.25;;;;;;;28.04;40.28;99623.59;5052530;28;20028;-50
2022/05/14 11:54:30;;;;;;;8.63;4.10;;;;;;;28.73;39.19;99619.13;5052777;28;20025;-52
2022/05/14 11:57:02;;;;;;;5.63;4.45;;;;;;;28.60;39.19;99614.69;5053116;28;20045;-48
2022/05/14 11:59:51;;;;;;;8.43;4.28;;;;;;;28.82;39.48;99608.13;5053302;28;20021;-49
2022/05/14 12:02:44;;;;;;;10.88;4.47;;;;;;;29.43;38.15;99589.44;5032641;28;20025;-49
2022/05/14 12:05:32;;;;;;;5.13;4.20;;;;;;;29.65;37.83;99583.97;5032271;28;20052;-51